sensor_id;sensor_type;location;lat;lon;timestamp;pressure;altitude;pressure_sealevel;temperature;humidity
48624;BME280;34422;45.802;16.114;2022-09-09T00:02:22;100096.94;;;19.21;100.00
48624;BME280;34422;45.802;16.114;2022-09-09T00:04:59;100096.41;;;19.24;100.00
48624;BME280;34422;45.802;16.114;2022-09-09T00:10:28;100084.31;;;19.20;100.00
48624;BME280;34422;45.802;16.114;2022-09-09T00:21:08;100054.69;;;19.12;100.00
48624;BME280;34422;45.802;16.114;2022-09-09T00:23:40;100040.97;;;19.07;100.00
48624;BME280;34422;45.802;16.114;2022-09-09T00:26:35;100043.16;;;19.05;100.00
48624;BME280;34422;45.802;16.114;2022-09-09T00:31:35;100046.47;;;18.97;100.00
48624;BME280;34422;45.802;16.114;2022-09-09T00:34:13;100048.13;;;18.98;100.00
48624;BME280;34422;45.802;16.114;2022-09-09T00:36:41;100058.53;;;18.96;100.00
48624;BME280;34422;45.802;16.114;2022-09-09T00:39:15;100068.41;;;18.97;100.00
48624;BME280;34422;45.802;16.114;2022-09-09T00:44:37;100065.66;;;19.02;100.00
48624;BME280;34422;45.802;16.114;2022-09-09T00:52:39;100066.47;;;18.92;100.00
48624;BME280;34422;45.802;16.114;2022-09-09T00:58:08;100051.38;;;18.79;100.00
48624;BME280;34422;45.802;16.114;2022-09-09T01:00:45;100056.84;;;18.69;100.00
48624;BME280;34422;45.802;16.114;2022-09-09T01:03:40;100050.28;;;18.70;100.00
48624;BME280;34422;45.802;16.114;2022-09-09T01:06:38;100036.28;;;18.67;100.00
48624;BME280;34422;45.802;16.114;2022-09-09T01:22:15;100064.00;;;18.96;100.00
48624;BME280;34422;45.802;16.114;2022-09-09T01:27:48;100079.66;;;19.10;100.00
48624;BME280;34422;45.802;16.114;2022-09-09T01:30:17;100087.59;;;19.17;100.00
48624;BME280;34422;45.802;16.114;2022-09-09T01:32:54;100088.16;;;19.19;100.00
48624;BME280;34422;45.802;16.114;2022-09-09T01:38:07;100098.56;;;19.27;100.00
48624;BME280;34422;45.802;16.114;2022-09-09T01:40:34;100099.13;;;19.24;100.00
48624;BME280;34422;45.802;16.114;2022-09-09T01:43:01;100098.59;;;19.22;100.00
48624;BME280;34422;45.802;16.114;2022-09-09T01:45:28;100109.00;;;19.25;100.00
48624;BME280;34422;45.802;16.114;2022-09-09T01:47:55;100105.44;;;19.30;100.00
48624;BME280;34422;45.802;16.114;2022-09-09T01:50:23;100099.13;;;19.29;100.00
48624;BME280;34422;45.802;16.114;2022-09-09T01:52:54;100104.34;;;19.31;100.00
48624;BME280;34422;45.802;16.114;2022-09-09T01:55:32;100101.59;;;19.31;100.00
48624;BME280;34422;45.802;16.114;2022-09-09T02:00:34;100105.19;;;19.26;100.00
48624;BME280;34422;45.802;16.114;2022-09-09T02:03:13;100116.69;;;19.23;100.00
48624;BME280;34422;45.802;16.114;2022-09-09T02:08:20;100119.44;;;19.13;100.00
48624;BME280;34422;45.802;16.114;2022-09-09T02:10:58;100119.41;;;19.08;100.00
48624;BME280;34422;45.802;16.114;2022-09-09T02:13:28;100119.94;;;19.05;100.00
48624;BME280;34422;45.802;16.114;2022-09-09T02:15:58;100112.25;;;19.02;100.00
48624;BME280;34422;45.802;16.114;2022-09-09T02:18:31;100105.13;;;18.96;100.00
48624;BME280;34422;45.802;16.114;2022-09-09T02:21:00;100104.03;;;18.92;100.00
48624;BME280;34422;45.802;16.114;2022-09-09T02:23:30;100109.78;;;18.85;100.00
48624;BME280;34422;45.802;16.114;2022-09-09T02:25:58;100105.09;;;18.80;100.00
48624;BME280;34422;45.802;16.114;2022-09-09T02:28:27;100116.06;;;18.80;100.00
48624;BME280;34422;45.802;16.114;2022-09-09T02:30:56;100121.00;;;18.78;100.00
48624;BME280;34422;45.802;16.114;2022-09-09T02:33:27;100123.72;;;18.73;100.00
48624;BME280;34422;45.802;16.114;2022-09-09T02:35:56;100125.09;;;18.71;100.00
48624;BME280;34422;45.802;16.114;2022-09-09T02:38:30;100133.84;;;18.73;100.00
48624;BME280;34422;45.802;16.114;2022-09-09T02:41:00;100130.28;;;18.72;100.00
48624;BME280;34422;45.802;16.114;2022-09-09T02:43:34;100130.84;;;18.74;100.00
48624;BME280;34422;45.802;16.114;2022-09-09T02:46:08;100131.94;;;18.73;100.00
48624;BME280;34422;45.802;16.114;2022-09-09T02:48:52;100132.22;;;18.72;100.00
48624;BME280;34422;45.802;16.114;2022-09-09T02:51:40;100127.53;;;18.72;100.00
48624;BME280;34422;45.802;16.114;2022-09-09T02:54:29;100133.03;;;18.72;100.00
48624;BME280;34422;45.802;16.114;2022-09-09T02:57:25;100133.03;;;18.72;100.00
48624;BME280;34422;45.802;16.114;2022-09-09T02:59:57;100135.75;;;18.72;100.00
48624;BME280;34422;45.802;16.114;2022-09-09T03:02:24;100141.25;;;18.72;100.00
48624;BME280;34422;45.802;16.114;2022-09-09T03:04:51;100147.28;;;18.74;100.00
48624;BME280;34422;45.802;16.114;2022-09-09T03:07:19;100145.63;;;18.73;100.00
48624;BME280;34422;45.802;16.114;2022-09-09T03:09:46;100139.06;;;18.74;100.00
48624;BME280;34422;45.802;16.114;2022-09-09T03:12:12;100135.50;;;18.74;100.00
48624;BME280;34422;45.802;16.114;2022-09-09T03:14:39;100136.88;;;18.71;100.00
48624;BME280;34422;45.802;16.114;2022-09-09T03:17:06;100131.09;;;18.68;100.00
48624;BME280;34422;45.802;16.114;2022-09-09T03:19:32;100131.91;;;18.63;100.00
48624;BME280;34422;45.802;16.114;2022-09-09T03:22:00;100141.22;;;18.62;100.00
48624;BME280;34422;45.802;16.114;2022-09-09T03:24:27;100142.31;;;18.61;100.00
48624;BME280;34422;45.802;16.114;2022-09-09T03:26:54;100143.66;;;18.59;100.00
48624;BME280;34422;45.802;16.114;2022-09-09T03:29:22;100131.06;;;18.58;100.00
48624;BME280;34422;45.802;16.114;2022-09-09T03:31:48;100140.38;;;18.57;100.00
48624;BME280;34422;45.802;16.114;2022-09-09T03:34:16;100135.72;;;18.57;100.00
48624;BME280;34422;45.802;16.114;2022-09-09T03:36:43;100139.53;;;18.56;100.00
48624;BME280;34422;45.802;16.114;2022-09-09T03:39:10;100128.84;;;18.55;100.00
48624;BME280;34422;45.802;16.114;2022-09-09T03:41:37;100123.63;;;18.53;100.00
48624;BME280;34422;45.802;16.114;2022-09-09T03:44:03;100126.94;;;18.55;100.00
48624;BME280;34422;45.802;16.114;2022-09-09T03:46:30;100126.94;;;18.55;100.00
48624;BME280;34422;45.802;16.114;2022-09-09T03:48:58;100122.00;;;18.57;100.00
48624;BME280;34422;45.802;16.114;2022-09-09T03:51:24;100119.56;;;18.61;100.00
48624;BME280;34422;45.802;16.114;2022-09-09T03:53:52;100118.19;;;18.63;100.00
48624;BME280;34422;45.802;16.114;2022-09-09T03:56:24;100113.25;;;18.60;100.00
48624;BME280;34422;45.802;16.114;2022-09-09T03:58:51;100115.47;;;18.63;100.00
48624;BME280;34422;45.802;16.114;2022-09-09T04:01:18;100118.19;;;18.63;100.00
48624;BME280;34422;45.802;16.114;2022-09-09T04:03:44;100116.56;;;18.62;100.00
48624;BME280;34422;45.802;16.114;2022-09-09T04:06:12;100113.25;;;18.60;100.00
48624;BME280;34422;45.802;16.114;2022-09-09T04:08:41;100109.97;;;18.58;100.00
48624;BME280;34422;45.802;16.114;2022-09-09T04:11:09;100109.41;;;18.56;100.00
48624;BME280;34422;45.802;16.114;2022-09-09T04:13:37;100112.13;;;18.56;100.00
48624;BME280;34422;45.802;16.114;2022-09-09T04:16:06;100103.91;;;18.56;100.00
48624;BME280;34422;45.802;16.114;2022-09-09T04:18:33;100113.78;;;18.57;100.00
48624;BME280;34422;45.802;16.114;2022-09-09T04:21:01;100117.34;;;18.58;100.00
48624;BME280;34422;45.802;16.114;2022-09-09T04:23:28;100109.97;;;18.58;100.00
48624;BME280;34422;45.802;16.114;2022-09-09T04:25:59;100109.41;;;18.56;100.00
48624;BME280;34422;45.802;16.114;2022-09-09T04:28:29;100112.13;;;18.56;100.00
48624;BME280;34422;45.802;16.114;2022-09-09T04:30:56;100109.66;;;18.55;100.00
48624;BME280;34422;45.802;16.114;2022-09-09T04:33:24;100115.66;;;18.52;100.00
48624;BME280;34422;45.802;16.114;2022-09-09T04:35:53;100115.66;;;18.52;100.00
48624;BME280;34422;45.802;16.114;2022-09-09T04:38:21;100119.50;;;18.51;100.00
48624;BME280;34422;45.802;16.114;2022-09-09T04:40:50;100113.72;;;18.47;100.00
48624;BME280;34422;45.802;16.114;2022-09-09T04:43:18;100108.25;;;18.47;100.00
48624;BME280;34422;45.802;16.114;2022-09-09T04:45:49;100099.47;;;18.45;100.00
48624;BME280;34422;45.802;16.114;2022-09-09T04:48:18;100100.59;;;18.44;100.00
48624;BME280;34422;45.802;16.114;2022-09-09T04:51:03;100092.91;;;18.41;100.00
48624;BME280;34422;45.802;16.114;2022-09-09T04:53:31;100092.91;;;18.41;100.00
48624;BME280;34422;45.802;16.114;2022-09-09T04:56:03;100090.94;;;18.36;100.00
48624;BME280;34422;45.802;16.114;2022-09-09T04:58:30;100092.31;;;18.34;100.00
48624;BME280;34422;45.802;16.114;2022-09-09T05:01:11;100095.59;;;18.36;100.00
48624;BME280;34422;45.802;16.114;2022-09-09T05:03:39;100106.03;;;18.39;100.00
48624;BME280;34422;45.802;16.114;2022-09-09T05:06:08;100102.22;;;18.40;100.00
48624;BME280;34422;45.802;16.114;2022-09-09T05:08:37;100105.50;;;18.47;100.00
48624;BME280;34422;45.802;16.114;2022-09-09T05:13:46;100116.56;;;18.62;100.00
48624;BME280;34422;45.802;16.114;2022-09-09T05:16:13;100122.06;;;18.72;100.00
48624;BME280;34422;45.802;16.114;2022-09-09T05:18:41;100122.94;;;18.88;100.00
48624;BME280;34422;45.802;16.114;2022-09-09T05:21:11;100126.53;;;18.99;100.00
48624;BME280;34422;45.802;16.114;2022-09-09T05:23:38;100129.56;;;19.07;100.00
48624;BME280;34422;45.802;16.114;2022-09-09T05:26:06;100132.59;;;19.21;100.00
48624;BME280;34422;45.802;16.114;2022-09-09T05:28:34;100135.34;;;19.31;100.00
48624;BME280;34422;45.802;16.114;2022-09-09T05:31:09;100137.00;;;19.37;100.00
48624;BME280;34422;45.802;16.114;2022-09-09T05:33:39;100138.38;;;19.45;100.00
48624;BME280;34422;45.802;16.114;2022-09-09T05:36:12;100143.31;;;19.48;100.00
48624;BME280;34422;45.802;16.114;2022-09-09T05:38:40;100146.31;;;19.46;100.00
48624;BME280;34422;45.802;16.114;2022-09-09T05:41:08;100146.59;;;19.45;100.00
48624;BME280;34422;45.802;16.114;2022-09-09T05:43:37;100144.13;;;19.48;100.00
48624;BME280;34422;45.802;16.114;2022-09-09T05:48:34;100129.91;;;19.51;100.00
48624;BME280;34422;45.802;16.114;2022-09-09T05:51:02;100131.81;;;19.56;100.00
48624;BME280;34422;45.802;16.114;2022-09-09T05:53:30;100135.38;;;19.62;100.00
48624;BME280;34422;45.802;16.114;2022-09-09T05:56:12;100123.56;;;19.61;100.00
48624;BME280;34422;45.802;16.114;2022-09-09T05:58:42;100129.34;;;19.60;100.00
48624;BME280;34422;45.802;16.114;2022-09-09T06:01:12;100130.97;;;19.56;100.00
48624;BME280;34422;45.802;16.114;2022-09-09T06:03:41;100119.75;;;19.52;100.00
48624;BME280;34422;45.802;16.114;2022-09-09T06:06:10;100131.25;;;19.59;100.00
48624;BME280;34422;45.802;16.114;2022-09-09T06:08:40;100131.00;;;19.61;100.00
48624;BME280;34422;45.802;16.114;2022-09-09T06:11:13;100134.28;;;19.78;100.00
48624;BME280;34422;45.802;16.114;2022-09-09T06:13:41;100139.50;;;19.79;100.00
48624;BME280;34422;45.802;16.114;2022-09-09T06:16:13;100136.16;;;19.82;100.00
48624;BME280;34422;45.802;16.114;2022-09-09T06:18:41;100140.28;;;19.85;100.00
48624;BME280;34422;45.802;16.114;2022-09-09T06:23:44;100139.47;;;19.84;100.00
48624;BME280;34422;45.802;16.114;2022-09-09T06:28:39;100144.97;;;19.84;100.00
48624;BME280;34422;45.802;16.114;2022-09-09T06:31:08;100147.44;;;19.86;100.00
48624;BME280;34422;45.802;16.114;2022-09-09T06:33:37;100150.72;;;19.88;100.00
48624;BME280;34422;45.802;16.114;2022-09-09T06:36:05;100149.63;;;19.94;100.00
48624;BME280;34422;45.802;16.114;2022-09-09T06:38:32;100149.34;;;19.96;100.00
48624;BME280;34422;45.802;16.114;2022-09-09T06:40:59;100143.03;;;20.05;100.00
48624;BME280;34422;45.802;16.114;2022-09-09T06:43:27;100136.38;;;20.21;100.00
48624;BME280;34422;45.802;16.114;2022-09-09T06:46:02;100152.84;;;20.37;99.36
48624;BME280;34422;45.802;16.114;2022-09-09T06:48:30;100150.31;;;20.50;100.00
48624;BME280;34422;45.802;16.114;2022-09-09T06:51:17;100153.38;;;20.44;97.38
48624;BME280;34422;45.802;16.114;2022-09-09T06:53:45;100149.81;;;20.38;97.87
48624;BME280;34422;45.802;16.114;2022-09-09T06:58:44;100158.88;;;20.34;97.23
48624;BME280;34422;45.802;16.114;2022-09-09T07:01:24;100153.09;;;20.45;98.10
48624;BME280;34422;45.802;16.114;2022-09-09T07:03:53;100163.78;;;20.52;98.58
48624;BME280;34422;45.802;16.114;2022-09-09T07:06:23;100162.94;;;20.56;98.42
48624;BME280;34422;45.802;16.114;2022-09-09T07:08:55;100155.03;;;20.45;97.45
48624;BME280;34422;45.802;16.114;2022-09-09T07:11:26;100160.22;;;20.51;97.38
48624;BME280;34422;45.802;16.114;2022-09-09T07:13:55;100151.41;;;20.54;96.57
48624;BME280;34422;45.802;16.114;2022-09-09T07:16:23;100148.59;;;20.65;96.05
48624;BME280;34422;45.802;16.114;2022-09-09T07:18:51;100155.72;;;20.76;93.21
48624;BME280;34422;45.802;16.114;2022-09-09T07:21:19;100150.94;;;20.97;93.17
48624;BME280;34422;45.802;16.114;2022-09-09T07:23:47;100151.94;;;21.11;91.38
48624;BME280;34422;45.802;16.114;2022-09-09T07:26:18;100163.00;;;21.01;91.15
48624;BME280;34422;45.802;16.114;2022-09-09T07:28:46;100173.75;;;20.97;90.18
48624;BME280;34422;45.802;16.114;2022-09-09T07:31:16;100163.06;;;20.90;91.09
48624;BME280;34422;45.802;16.114;2022-09-09T07:33:44;100167.94;;;21.04;91.74
48624;BME280;34422;45.802;16.114;2022-09-09T07:36:16;100164.56;;;21.22;89.73
48624;BME280;34422;45.802;16.114;2022-09-09T07:38:46;100170.06;;;21.17;88.95
48624;BME280;34422;45.802;16.114;2022-09-09T07:41:19;100169.81;;;21.13;89.27
48624;BME280;34422;45.802;16.114;2022-09-09T07:43:47;100175.81;;;21.25;88.85
48624;BME280;34422;45.802;16.114;2022-09-09T07:46:16;100176.00;;;21.39;88.41
48624;BME280;34422;45.802;16.114;2022-09-09T07:48:47;100169.22;;;21.60;86.58
48624;BME280;34422;45.802;16.114;2022-09-09T07:51:21;100157.81;;;22.06;84.82
48624;BME280;34422;45.802;16.114;2022-09-09T07:53:53;100150.63;;;23.00;81.17
48624;BME280;34422;45.802;16.114;2022-09-09T07:56:20;100150.25;;;23.26;77.24
48624;BME280;34422;45.802;16.114;2022-09-09T07:58:51;100157.88;;;23.53;74.72
48624;BME280;34422;45.802;16.114;2022-09-09T08:01:24;100160.97;;;24.43;72.46
48624;BME280;34422;45.802;16.114;2022-09-09T08:03:59;100161.13;;;24.88;68.50
48624;BME280;34422;45.802;16.114;2022-09-09T08:06:29;100165.03;;;25.37;66.21
48624;BME280;34422;45.802;16.114;2022-09-09T08:08:56;100157.91;;;24.59;68.38
48624;BME280;34422;45.802;16.114;2022-09-09T08:11:29;100161.38;;;23.58;73.69
48624;BME280;34422;45.802;16.114;2022-09-09T08:13:57;100164.50;;;22.95;76.11
48624;BME280;34422;45.802;16.114;2022-09-09T08:16:27;100153.63;;;23.23;77.30
48624;BME280;34422;45.802;16.114;2022-09-09T08:18:54;100154.75;;;24.19;73.72
48624;BME280;34422;45.802;16.114;2022-09-09T08:21:23;100145.38;;;24.48;69.48
48624;BME280;34422;45.802;16.114;2022-09-09T08:23:52;100160.63;;;25.36;67.13
48624;BME280;34422;45.802;16.114;2022-09-09T08:26:21;100153.72;;;25.11;66.47
48624;BME280;34422;45.802;16.114;2022-09-09T08:28:50;100157.75;;;25.85;65.20
48624;BME280;34422;45.802;16.114;2022-09-09T08:31:22;100160.41;;;25.91;63.92
48624;BME280;34422;45.802;16.114;2022-09-09T08:33:49;100142.53;;;25.16;63.99
48624;BME280;34422;45.802;16.114;2022-09-09T08:36:20;100153.75;;;24.97;64.58
48624;BME280;34422;45.802;16.114;2022-09-09T08:38:49;100143.06;;;24.91;63.63
48624;BME280;34422;45.802;16.114;2022-09-09T08:44:04;100139.63;;;24.85;66.79
48624;BME280;34422;45.802;16.114;2022-09-09T08:52:17;100145.38;;;25.47;62.04
48624;BME280;34422;45.802;16.114;2022-09-09T08:54:46;100130.53;;;25.88;59.66
48624;BME280;34422;45.802;16.114;2022-09-09T08:57:21;100125.72;;;26.02;58.83
48624;BME280;34422;45.802;16.114;2022-09-09T08:59:55;100117.88;;;25.73;60.68
48624;BME280;34422;45.802;16.114;2022-09-09T09:02:28;100114.94;;;25.69;61.93
48624;BME280;34422;45.802;16.114;2022-09-09T09:05:22;100113.78;;;25.70;60.68
48624;BME280;34422;45.802;16.114;2022-09-09T09:08:03;100112.16;;;25.47;60.59
48624;BME280;34422;45.802;16.114;2022-09-09T09:10:46;100104.81;;;24.57;63.71
48624;BME280;34422;45.802;16.114;2022-09-09T09:13:17;100116.56;;;25.26;61.44
48624;BME280;34422;45.802;16.114;2022-09-09T09:15:48;100116.47;;;25.84;56.55
48624;BME280;34422;45.802;16.114;2022-09-09T09:18:17;100117.94;;;25.37;54.28
48624;BME280;34422;45.802;16.114;2022-09-09T09:23:49;100099.31;;;25.51;56.17
48624;BME280;34422;45.802;16.114;2022-09-09T09:26:21;100090.03;;;25.78;57.07
48624;BME280;34422;45.802;16.114;2022-09-09T09:28:50;100089.84;;;25.74;58.04
48624;BME280;34422;45.802;16.114;2022-09-09T09:31:20;100081.84;;;25.73;58.82
48624;BME280;34422;45.802;16.114;2022-09-09T09:33:56;100085.47;;;25.51;57.89
48624;BME280;34422;45.802;16.114;2022-09-09T09:36:35;100079.88;;;25.65;57.17
48624;BME280;34422;45.802;16.114;2022-09-09T09:39:05;100068.31;;;25.71;56.52
48624;BME280;34422;45.802;16.114;2022-09-09T09:41:36;100069.34;;;25.31;57.61
48624;BME280;34422;45.802;16.114;2022-09-09T09:44:18;100075.13;;;25.21;56.54
48624;BME280;34422;45.802;16.114;2022-09-09T09:46:48;100079.03;;;25.20;55.88
48624;BME280;34422;45.802;16.114;2022-09-09T09:49:15;100072.53;;;25.02;55.00
48624;BME280;34422;45.802;16.114;2022-09-09T09:51:42;100077.72;;;25.39;55.21
48624;BME280;34422;45.802;16.114;2022-09-09T09:56:40;100074.69;;;25.49;53.06
48624;BME280;34422;45.802;16.114;2022-09-09T10:01:54;100071.56;;;25.96;54.20
48624;BME280;34422;45.802;16.114;2022-09-09T10:04:22;100062.19;;;26.23;52.70
48624;BME280;34422;45.802;16.114;2022-09-09T10:06:52;100062.25;;;26.40;50.58
48624;BME280;34422;45.802;16.114;2022-09-09T10:09:30;100064.50;;;26.29;52.23
48624;BME280;34422;45.802;16.114;2022-09-09T10:14:50;100045.19;;;26.64;52.56
48624;BME280;34422;45.802;16.114;2022-09-09T10:17:28;100055.31;;;26.94;51.54
48624;BME280;34422;45.802;16.114;2022-09-09T10:22:50;100049.44;;;26.87;52.57
48624;BME280;34422;45.802;16.114;2022-09-09T10:25:55;100044.88;;;26.91;53.08
48624;BME280;34422;45.802;16.114;2022-09-09T10:36:21;100022.69;;;26.26;55.17
48624;BME280;34422;45.802;16.114;2022-09-09T10:55:30;100018.19;;;26.38;55.29
48624;BME280;34422;45.802;16.114;2022-09-09T10:58:03;100025.53;;;26.34;55.70
48624;BME280;34422;45.802;16.114;2022-09-09T11:00:43;100026.34;;;26.35;54.80
48624;BME280;34422;45.802;16.114;2022-09-09T11:03:20;100020.50;;;26.36;56.21
48624;BME280;34422;45.802;16.114;2022-09-09T11:05:58;100013.81;;;26.46;56.00
48624;BME280;34422;45.802;16.114;2022-09-09T11:08:29;100008.59;;;26.62;56.25
48624;BME280;34422;45.802;16.114;2022-09-09T11:13:39;100002.06;;;26.75;54.03
48624;BME280;34422;45.802;16.114;2022-09-09T11:19:05;99995.19;;;26.81;55.25
48624;BME280;34422;45.802;16.114;2022-09-09T11:21:42;100005.03;;;27.04;54.75
48624;BME280;34422;45.802;16.114;2022-09-09T11:24:33;99998.31;;;27.14;54.38
48624;BME280;34422;45.802;16.114;2022-09-09T11:27:15;99988.03;;;27.06;53.94
48624;BME280;34422;45.802;16.114;2022-09-09T11:32:59;99989.34;;;26.74;54.83
48624;BME280;34422;45.802;16.114;2022-09-09T11:38:36;99998.97;;;26.76;55.89
48624;BME280;34422;45.802;16.114;2022-09-09T11:41:08;100008.94;;;26.86;56.46
48624;BME280;34422;45.802;16.114;2022-09-09T11:46:09;99989.47;;;26.51;56.13
48624;BME280;34422;45.802;16.114;2022-09-09T11:48:37;99980.16;;;26.30;58.31
48624;BME280;34422;45.802;16.114;2022-09-09T11:51:10;99983.75;;;26.39;58.00
48624;BME280;34422;45.802;16.114;2022-09-09T11:53:59;99976.84;;;26.19;59.32
48624;BME280;34422;45.802;16.114;2022-09-09T11:56:34;99982.28;;;26.33;59.08
48624;BME280;34422;45.802;16.114;2022-09-09T11:59:17;99975.22;;;26.27;59.70
48624;BME280;34422;45.802;16.114;2022-09-09T12:01:50;99969.09;;;26.47;59.13
48624;BME280;34422;45.802;16.114;2022-09-09T12:07:23;99973.34;;;26.71;60.12
48624;BME280;34422;45.802;16.114;2022-09-09T12:10:00;99974.13;;;26.54;58.48
48624;BME280;34422;45.802;16.114;2022-09-09T12:12:31;99981.09;;;26.17;60.81
48624;BME280;34422;45.802;16.114;2022-09-09T12:15:17;99982.72;;;26.18;63.86
48624;BME280;34422;45.802;16.114;2022-09-09T12:17:52;99985.34;;;26.23;66.19
48624;BME280;34422;45.802;16.114;2022-09-09T12:20:23;99989.72;;;26.24;65.38
48624;BME280;34422;45.802;16.114;2022-09-09T12:23:29;99986.97;;;26.24;64.86
48624;BME280;34422;45.802;16.114;2022-09-09T12:26:06;99987.63;;;26.21;64.71
48624;BME280;34422;45.802;16.114;2022-09-09T12:31:41;99991.38;;;25.68;70.01
48624;BME280;34422;45.802;16.114;2022-09-09T12:34:15;99992.28;;;25.55;70.65
48624;BME280;34422;45.802;16.114;2022-09-09T12:36:44;99987.53;;;25.25;74.33
48624;BME280;34422;45.802;16.114;2022-09-09T12:39:29;99986.91;;;25.05;77.45
48624;BME280;34422;45.802;16.114;2022-09-09T12:41:56;99991.78;;;24.64;85.10
48624;BME280;34422;45.802;16.114;2022-09-09T12:44:25;99984.31;;;24.01;94.49
48624;BME280;34422;45.802;16.114;2022-09-09T12:46:55;99983.50;;;23.27;100.00
48624;BME280;34422;45.802;16.114;2022-09-09T12:49:36;99984.50;;;22.66;100.00
48624;BME280;34422;45.802;16.114;2022-09-09T12:54:46;99958.97;;;22.74;100.00
48624;BME280;34422;45.802;16.114;2022-09-09T12:57:14;99954.69;;;23.00;100.00
48624;BME280;34422;45.802;16.114;2022-09-09T12:59:43;99950.16;;;23.10;100.00
48624;BME280;34422;45.802;16.114;2022-09-09T13:02:18;99946.69;;;23.18;100.00
48624;BME280;34422;45.802;16.114;2022-09-09T13:04:46;99938.06;;;23.06;100.00
48624;BME280;34422;45.802;16.114;2022-09-09T13:07:13;99934.34;;;22.96;100.00
48624;BME280;34422;45.802;16.114;2022-09-09T13:09:44;99935.28;;;22.73;100.00
48624;BME280;34422;45.802;16.114;2022-09-09T13:12:17;99932.81;;;22.90;100.00
48624;BME280;34422;45.802;16.114;2022-09-09T13:14:47;99941.66;;;23.06;100.00
48624;BME280;34422;45.802;16.114;2022-09-09T13:17:17;99933.19;;;23.16;100.00
48624;BME280;34422;45.802;16.114;2022-09-09T13:19:44;99937.47;;;23.09;100.00
48624;BME280;34422;45.802;16.114;2022-09-09T13:22:31;99934.59;;;23.14;100.00
48624;BME280;34422;45.802;16.114;2022-09-09T13:25:18;99925.16;;;23.01;100.00
48624;BME280;34422;45.802;16.114;2022-09-09T13:27:56;99926.19;;;22.91;100.00
48624;BME280;34422;45.802;16.114;2022-09-09T13:33:02;99925.56;;;22.94;100.00
48624;BME280;34422;45.802;16.114;2022-09-09T13:35:30;99921.28;;;23.02;100.00
48624;BME280;34422;45.802;16.114;2022-09-09T13:37:58;99912.28;;;22.96;100.00
48624;BME280;34422;45.802;16.114;2022-09-09T13:40:25;99910.84;;;22.99;100.00
48624;BME280;34422;45.802;16.114;2022-09-09T13:42:56;99907.59;;;23.11;100.00
48624;BME280;34422;45.802;16.114;2022-09-09T13:45:25;99914.88;;;23.07;100.00
48624;BME280;34422;45.802;16.114;2022-09-09T13:47:55;99911.91;;;23.17;100.00
48624;BME280;34422;45.802;16.114;2022-09-09T13:50:25;99915.59;;;23.26;100.00
48624;BME280;34422;45.802;16.114;2022-09-09T13:52:57;99917.25;;;23.40;100.00
48624;BME280;34422;45.802;16.114;2022-09-09T13:55:26;99911.38;;;23.61;100.00
48624;BME280;34422;45.802;16.114;2022-09-09T13:58:00;99893.97;;;23.60;100.00
48624;BME280;34422;45.802;16.114;2022-09-09T14:00:33;99893.16;;;23.60;100.00
48624;BME280;34422;45.802;16.114;2022-09-09T14:03:00;99905.41;;;23.67;97.22
48624;BME280;34422;45.802;16.114;2022-09-09T14:05:31;99906.03;;;23.64;98.67
48624;BME280;34422;45.802;16.114;2022-09-09T14:07:59;99912.78;;;23.58;95.98
48624;BME280;34422;45.802;16.114;2022-09-09T14:10:27;99913.91;;;23.57;94.07
48624;BME280;34422;45.802;16.114;2022-09-09T14:12:53;99907.66;;;23.52;89.75
48624;BME280;34422;45.802;16.114;2022-09-09T14:15:21;99904.28;;;23.55;96.11
48624;BME280;34422;45.802;16.114;2022-09-09T14:17:48;99903.69;;;23.58;89.17
48624;BME280;34422;45.802;16.114;2022-09-09T14:20:15;99898.47;;;23.56;92.81
48624;BME280;34422;45.802;16.114;2022-09-09T14:22:43;99898.13;;;23.44;89.89
48624;BME280;34422;45.802;16.114;2022-09-09T14:25:11;99890.28;;;23.51;89.71
48624;BME280;34422;45.802;16.114;2022-09-09T14:27:39;99879.00;;;23.48;91.60
48624;BME280;34422;45.802;16.114;2022-09-09T14:30:06;99890.19;;;23.56;94.92
48624;BME280;34422;45.802;16.114;2022-09-09T14:32:34;99892.72;;;23.53;93.19
48624;BME280;34422;45.802;16.114;2022-09-09T14:35:01;99899.34;;;23.38;92.83
48624;BME280;34422;45.802;16.114;2022-09-09T14:37:28;99899.25;;;23.43;93.31
48624;BME280;34422;45.802;16.114;2022-09-09T14:39:59;99894.16;;;23.23;93.29
48624;BME280;34422;45.802;16.114;2022-09-09T14:42:26;99903.94;;;23.15;95.91
48624;BME280;34422;45.802;16.114;2022-09-09T14:44:53;99905.78;;;23.20;96.93
48624;BME280;34422;45.802;16.114;2022-09-09T14:47:20;99900.47;;;23.10;99.31
48624;BME280;34422;45.802;16.114;2022-09-09T14:49:46;99910.03;;;22.98;99.45
48624;BME280;34422;45.802;16.114;2022-09-09T14:52:16;99912.25;;;22.83;100.00
48624;BME280;34422;45.802;16.114;2022-09-09T14:54:43;99922.19;;;22.65;96.70
48624;BME280;34422;45.802;16.114;2022-09-09T14:57:10;99923.47;;;22.54;90.85
48624;BME280;34422;45.802;16.114;2022-09-09T14:59:37;99919.66;;;22.50;90.40
48624;BME280;34422;45.802;16.114;2022-09-09T15:02:04;99919.97;;;22.48;91.95
48624;BME280;34422;45.802;16.114;2022-09-09T15:04:30;99919.66;;;22.50;92.38
48624;BME280;34422;45.802;16.114;2022-09-09T15:06:57;99932.09;;;22.47;93.64
48624;BME280;34422;45.802;16.114;2022-09-09T15:09:24;99933.00;;;22.43;94.21
48624;BME280;34422;45.802;16.114;2022-09-09T15:11:51;99933.50;;;22.45;96.28
48624;BME280;34422;45.802;16.114;2022-09-09T15:14:18;99942.91;;;22.44;97.23